ADDS METAR Data INFO
IDs: Format: Raw Decoded Include TAF

Data at: 1217 UTC 23 Mar 2017

METAR for:KSNS (Salinas Muni, CA, US)
Text:KSNS 231153Z AUTO 03003KT 10SM OVC041 09/07 A3016 RMK AO2 SLP223 70027 T00940072 10106 20083 58000
Temperature: 9.4°C ( 49°F)
Dewpoint: 7.2°C ( 45°F) [RH = 86%]
Pressure (altimeter):30.16 inches Hg (1021.4 mb) [Sea level pressure: 1022.3 mb]
Winds:from the NNE (30 degrees) at 3 MPH (3 knots; 1.5 m/s)
Visibility:10 or more sm (16+ km)
Ceiling:4100 feet AGL
Clouds: overcast cloud deck at 4100 feet AGL
QC Flag:automated observation with no human augmentation
Text:KSNS 231053Z AUTO 00000KT 10SM BKN043 09/07 A3016 RMK AO2 SLP223 T00940067
Temperature: 9.4°C ( 49°F)
Dewpoint: 6.7°C ( 44°F) [RH = 83%]
Pressure (altimeter):30.16 inches Hg (1021.4 mb) [Sea level pressure: 1022.3 mb]
Winds:calm
Visibility:10 or more sm (16+ km)
Ceiling:4300 feet AGL
Clouds: broken clouds at 4300 feet AGL
QC Flag:automated observation with no human augmentation
Text:KSNS 230953Z AUTO 00000KT 10SM FEW039 BKN048 08/06 A3017 RMK AO2 SLP225 T00830061
Temperature: 8.3°C ( 47°F)
Dewpoint: 6.1°C ( 43°F) [RH = 86%]
Pressure (altimeter):30.17 inches Hg (1021.8 mb) [Sea level pressure: 1022.5 mb]
Winds:calm
Visibility:10 or more sm (16+ km)
Ceiling:4800 feet AGL
Clouds: few clouds at 3900 feet AGL, broken clouds at 4800 feet AGL
QC Flag:automated observation with no human augmentation
Text:KSNS 230853Z AUTO 00000KT 10SM FEW044 09/06 A3016 RMK AO2 SLP223 T00890061 51007
Temperature: 8.9°C ( 48°F)
Dewpoint: 6.1°C ( 43°F) [RH = 83%]
Pressure (altimeter):30.16 inches Hg (1021.4 mb) [Sea level pressure: 1022.3 mb]
Winds:calm
Visibility:10 or more sm (16+ km)
Ceiling:at least 12,000 feet AGL
Clouds: few clouds at 4400 feet AGL
QC Flag:automated observation with no human augmentation
Text:KSNS 230753Z AUTO 31004KT 10SM CLR 09/07 A3016 RMK AO2 SLP221 T00940067 401670094
Temperature: 9.4°C ( 49°F)
Dewpoint: 6.7°C ( 44°F) [RH = 83%]
Pressure (altimeter):30.16 inches Hg (1021.4 mb) [Sea level pressure: 1022.1 mb]
Winds:from the NW (310 degrees) at 5 MPH (4 knots; 2.1 m/s)
Visibility:10 or more sm (16+ km)
Ceiling:at least 12,000 feet AGL
Clouds:sky clear below 12,000 feet AGL
QC Flag:automated observation with no human augmentation
Text:KSNS 230653Z AUTO 28006KT 10SM FEW045 11/07 A3015 RMK AO2 SLP219 T01060067
Temperature: 10.6°C ( 51°F)
Dewpoint: 6.7°C ( 44°F) [RH = 77%]
Pressure (altimeter):30.15 inches Hg (1021.1 mb) [Sea level pressure: 1021.9 mb]
Winds:from the W (280 degrees) at 7 MPH (6 knots; 3.1 m/s)
Visibility:10 or more sm (16+ km)
Ceiling:at least 12,000 feet AGL
Clouds: few clouds at 4500 feet AGL
QC Flag:automated observation with no human augmentation
Text:KSNS 230553Z AUTO 26005KT 10SM SCT040 11/07 A3014 RMK AO2 SLP216 T01060067 10150 20106 51017
Temperature: 10.6°C ( 51°F)
Dewpoint: 6.7°C ( 44°F) [RH = 77%]
Pressure (altimeter):30.14 inches Hg (1020.7 mb) [Sea level pressure: 1021.6 mb]
Winds:from the W (260 degrees) at 6 MPH (5 knots; 2.6 m/s)
Visibility:10 or more sm (16+ km)
Ceiling:at least 12,000 feet AGL
Clouds: scattered clouds at 4000 feet AGL
QC Flag:automated observation with no human augmentation
Text:KSNS 230453Z AUTO 27006KT 10SM CLR 11/07 A3013 RMK AO2 SLP212 T01110067
Temperature: 11.1°C ( 52°F)
Dewpoint: 6.7°C ( 44°F) [RH = 74%]
Pressure (altimeter):30.13 inches Hg (1020.4 mb) [Sea level pressure: 1021.2 mb]
Winds:from the W (270 degrees) at 7 MPH (6 knots; 3.1 m/s)
Visibility:10 or more sm (16+ km)
Ceiling:at least 12,000 feet AGL
Clouds:sky clear below 12,000 feet AGL
QC Flag:automated observation with no human augmentation
Text:KSNS 230353Z AUTO 26009KT 10SM BKN060 12/07 A3011 RMK AO2 SLP205 T01170072
Temperature: 11.7°C ( 53°F)
Dewpoint: 7.2°C ( 45°F) [RH = 74%]
Pressure (altimeter):30.11 inches Hg (1019.7 mb) [Sea level pressure: 1020.5 mb]
Winds:from the W (260 degrees) at 10 MPH (9 knots; 4.6 m/s)
Visibility:10 or more sm (16+ km)
Ceiling:6000 feet AGL
Clouds: broken clouds at 6000 feet AGL
QC Flag:automated observation with no human augmentation
Text:KSNS 230253Z AUTO 25012KT 10SM CLR 12/07 A3009 RMK AO2 SLP199 T01220072 53008
Temperature: 12.2°C ( 54°F)
Dewpoint: 7.2°C ( 45°F) [RH = 71%]
Pressure (altimeter):30.09 inches Hg (1019.0 mb) [Sea level pressure: 1019.9 mb]
Winds:from the WSW (250 degrees) at 14 MPH (12 knots; 6.2 m/s)
Visibility:10 or more sm (16+ km)
Ceiling:at least 12,000 feet AGL
Clouds:sky clear below 12,000 feet AGL
QC Flag:automated observation with no human augmentation
Text:KSNS 230153Z AUTO 25015G22KT 10SM FEW065 13/07 A3008 RMK AO2 SLP195 T01330072
Temperature: 13.3°C ( 56°F)
Dewpoint: 7.2°C ( 45°F) [RH = 66%]
Pressure (altimeter):30.08 inches Hg (1018.7 mb) [Sea level pressure: 1019.5 mb]
Winds:from the WSW (250 degrees) at 17 MPH (15 knots; 7.7 m/s) gusting to 25 MPH (22 knots; 11.3 m/s)
Visibility:10 or more sm (16+ km)
Ceiling:at least 12,000 feet AGL
Clouds: few clouds at 6500 feet AGL
QC Flag:automated observation with no human augmentation
Text:KSNS 230053Z 25017KT 10SM BKN055 14/07 A3007 RMK AO2 PK WND 26026/0035 SLP191 T01440067
Temperature: 14.4°C ( 58°F)
Dewpoint: 6.7°C ( 44°F) [RH = 60%]
Pressure (altimeter):30.07 inches Hg (1018.4 mb) [Sea level pressure: 1019.1 mb]
Winds:from the WSW (250 degrees) at 20 MPH (17 knots; 8.7 m/s)
Visibility:10 or more sm (16+ km)
Ceiling:5500 feet AGL
Clouds: broken clouds at 5500 feet AGL


Page loaded:  12:17 UTC  |   05:17 AM Pacific  |   06:17 AM Mountain  |   07:17 AM Central  |   08:17 AM Eastern

 

ADVISORIES

FORECASTS

FORECASTS

OBSERVATIONS

USER TOOLS

ABOUT US